createdAt,value
2023-04-09T00:01:14.551Z,101704.63
2023-04-09T00:03:43.228Z,101701.75
2023-04-09T00:06:11.618Z,101696.97
2023-04-09T00:08:38.109Z,101697.50
2023-04-09T00:11:04.966Z,101706.91
2023-04-09T00:13:39.013Z,101701.25
2023-04-09T00:16:06.893Z,101699.19
2023-04-09T00:18:33.709Z,101698.22
2023-04-09T00:21:00.631Z,101700.94
2023-04-09T00:23:27.259Z,101695.03
2023-04-09T00:25:55.201Z,101703.16
2023-04-09T00:28:21.868Z,101707.75
2023-04-09T00:30:48.381Z,101698.34
2023-04-09T00:33:18.048Z,101698.50
2023-04-09T00:35:44.749Z,101692.31
2023-04-09T00:38:12.308Z,101698.50
2023-04-09T00:40:38.881Z,101701.88
2023-04-09T00:43:05.658Z,101698.94
2023-04-09T00:45:32.686Z,101690.03
2023-04-09T00:47:59.562Z,101697.56
2023-04-09T00:50:26.502Z,101694.72
2023-04-09T00:52:53.339Z,101699.72
2023-04-09T00:55:21.378Z,101696.94
2023-04-09T00:57:47.925Z,101704.81
2023-04-09T01:00:16.162Z,101693.34
2023-04-09T01:02:43.967Z,101699.44
2023-04-09T01:05:14.190Z,101687.97
2023-04-09T01:08:05.769Z,101697.63
2023-04-09T01:10:51.178Z,101691.56
2023-04-09T01:13:33.283Z,101689.00
2023-04-09T01:16:03.169Z,101686.44
2023-04-09T01:18:41.822Z,101689.88
2023-04-09T01:21:19.199Z,101679.31
2023-04-09T01:24:17.063Z,101691.69
2023-04-09T01:26:51.352Z,101681.94
2023-04-09T01:29:20.456Z,101686.13
2023-04-09T01:31:52.100Z,101675.63
2023-04-09T01:34:20.519Z,101674.66
2023-04-09T01:36:52.176Z,101667.69
2023-04-09T01:39:19.341Z,101680.00
2023-04-09T01:41:46.866Z,101674.59
2023-04-09T01:44:16.697Z,101678.13
2023-04-09T01:46:43.685Z,101673.69
2023-04-09T01:49:11.259Z,101677.13
2023-04-09T01:51:38.902Z,101684.03
2023-04-09T01:54:05.725Z,101683.06
2023-04-09T01:56:45.706Z,101681.34
2023-04-09T01:59:12.690Z,101675.34
2023-04-09T02:01:47.695Z,101675.50
2023-04-09T02:04:29.586Z,101683.22
2023-04-09T02:07:07.098Z,101686.66
2023-04-09T02:09:37.065Z,101684.88
2023-04-09T02:12:06.836Z,101685.84
2023-04-09T02:14:34.580Z,101692.97
2023-04-09T02:17:02.246Z,101695.66
2023-04-09T02:19:39.637Z,101689.59
2023-04-09T02:22:06.334Z,101696.81
2023-04-09T02:24:32.802Z,101695.13
2023-04-09T02:26:59.463Z,101692.50
2023-04-09T02:29:25.919Z,101699.34
2023-04-09T02:31:53.814Z,101690.41
2023-04-09T02:34:20.373Z,101685.16
2023-04-09T02:36:48.315Z,101689.53
2023-04-09T02:39:15.424Z,101693.94
2023-04-09T02:41:42.297Z,101693.94
2023-04-09T02:44:08.967Z,101689.53
2023-04-09T02:46:35.597Z,101682.53
2023-04-09T02:49:02.584Z,101679.16
2023-04-09T02:51:29.203Z,101682.69
2023-04-09T02:53:55.868Z,101672.03
2023-04-09T02:56:22.741Z,101680.59
2023-04-09T02:58:53.995Z,101674.38
2023-04-09T03:01:23.231Z,101677.00
2023-04-09T03:03:50.434Z,101669.19
2023-04-09T03:06:20.686Z,101669.13
2023-04-09T03:08:47.316Z,101676.09
2023-04-09T03:11:14.219Z,101675.69
2023-04-09T03:13:40.687Z,101670.06
2023-04-09T03:16:07.824Z,101673.25
2023-04-09T03:18:34.363Z,101670.50
2023-04-09T03:21:05.476Z,101671.34
2023-04-09T03:23:35.285Z,101673.78
2023-04-09T03:26:06.553Z,101669.38
2023-04-09T03:28:49.437Z,101673.56
2023-04-09T03:31:17.071Z,101677.75
2023-04-09T03:33:44.944Z,101678.47
2023-04-09T03:36:12.002Z,101676.63
2023-04-09T03:38:52.599Z,101670.97
2023-04-09T03:41:41.310Z,101667.94
2023-04-09T03:44:11.666Z,101674.66
2023-04-09T03:46:55.274Z,101675.31
2023-04-09T03:49:22.654Z,101675.31
2023-04-09T03:51:49.983Z,101678.03
2023-04-09T03:54:16.687Z,101675.47
2023-04-09T03:56:44.481Z,101678.09
2023-04-09T03:59:13.511Z,101682.69
2023-04-09T04:01:43.998Z,101682.03
2023-04-09T04:04:10.787Z,101675.97
2023-04-09T04:06:47.753Z,101677.00
2023-04-09T04:09:32.805Z,101680.69
2023-04-09T04:12:11.088Z,101680.03
2023-04-09T04:14:51.085Z,101695.19
2023-04-09T04:17:27.010Z,101680.50
2023-04-09T04:19:54.599Z,101690.16
2023-04-09T04:22:24.908Z,101685.19
2023-04-09T04:24:55.025Z,101677.63
2023-04-09T04:27:22.685Z,101683.09
2023-04-09T04:29:49.913Z,101681.59
2023-04-09T04:32:36.445Z,101676.53
2023-04-09T04:35:07.621Z,101683.72
2023-04-09T04:37:34.704Z,101683.97
2023-04-09T04:40:02.796Z,101681.66
2023-04-09T04:42:31.434Z,101680.16
2023-04-09T04:45:01.395Z,101686.59
2023-04-09T04:47:42.757Z,101679.84
2023-04-09T04:50:09.815Z,101680.09
2023-04-09T04:52:50.342Z,101675.00
2023-04-09T04:55:18.347Z,101676.06
2023-04-09T04:57:44.924Z,101676.22
2023-04-09T05:00:14.530Z,101677.22
2023-04-09T05:02:43.112Z,101683.56
2023-04-09T05:05:18.138Z,101682.13
2023-04-09T05:07:50.449Z,101683.34
2023-04-09T05:10:16.996Z,101680.19
2023-04-09T05:12:45.103Z,101676.84
2023-04-09T05:15:18.415Z,101684.13
2023-04-09T05:17:45.807Z,101686.81
2023-04-09T05:20:14.337Z,101689.63
2023-04-09T05:22:54.455Z,101684.56
2023-04-09T05:25:27.793Z,101684.78
2023-04-09T05:27:54.398Z,101687.63
2023-04-09T05:30:21.602Z,101687.84
2023-04-09T05:32:48.304Z,101682.78
2023-04-09T05:35:16.099Z,101697.94
2023-04-09T05:37:45.474Z,101688.53
2023-04-09T05:40:12.677Z,101688.03
2023-04-09T05:42:41.643Z,101689.19
2023-04-09T05:45:17.603Z,101690.34
2023-04-09T05:47:50.919Z,101693.28
2023-04-09T05:50:20.539Z,101694.53
2023-04-09T05:52:50.072Z,101690.56
2023-04-09T05:55:16.964Z,101693.53
2023-04-09T05:57:59.299Z,101684.16
2023-04-09T06:00:26.540Z,101692.38
2023-04-09T06:02:53.103Z,101692.78
2023-04-09T06:05:19.649Z,101686.25
2023-04-09T06:07:47.549Z,101694.53
2023-04-09T06:10:14.373Z,101697.50
2023-04-09T06:12:41.255Z,101700.47
2023-04-09T06:15:09.468Z,101701.56
2023-04-09T06:17:36.106Z,101703.50
2023-04-09T06:20:02.792Z,101704.44
2023-04-09T06:22:29.308Z,101709.78
2023-04-09T06:24:55.812Z,101710.81
2023-04-09T06:27:22.991Z,101715.22
2023-04-09T06:29:49.458Z,101728.53
2023-04-09T06:32:16.732Z,101725.19
2023-04-09T06:34:43.345Z,101725.31
2023-04-09T06:37:09.935Z,101729.75
2023-04-09T06:39:37.412Z,101727.25
2023-04-09T06:42:05.201Z,101727.25
2023-04-09T06:44:38.656Z,101723.88
2023-04-09T06:47:05.442Z,101724.84
2023-04-09T06:49:31.908Z,101726.84
2023-04-09T06:51:58.405Z,101723.50
2023-04-09T06:54:25.024Z,101721.00
2023-04-09T06:56:51.894Z,101723.00
2023-04-09T06:59:18.673Z,101720.63
2023-04-09T07:01:45.566Z,101726.97
2023-04-09T07:04:12.191Z,101723.63
2023-04-09T07:06:40.696Z,101733.44
2023-04-09T07:09:07.523Z,101731.03
2023-04-09T07:11:34.039Z,101733.00
2023-04-09T07:14:00.890Z,101736.72
2023-04-09T07:16:27.483Z,101736.91
2023-04-09T07:18:54.074Z,101742.28
2023-04-09T07:21:20.660Z,101737.16
2023-04-09T07:23:48.058Z,101731.94
2023-04-09T07:26:15.848Z,101732.09
2023-04-09T07:28:42.466Z,101738.38
2023-04-09T07:31:09.785Z,101738.53
2023-04-09T07:33:36.278Z,101732.59
2023-04-09T07:36:02.939Z,101741.50
2023-04-09T07:38:30.362Z,101734.59
2023-04-09T07:40:57.605Z,101734.53
2023-04-09T07:43:24.123Z,101730.22
2023-04-09T07:45:51.645Z,101726.75
2023-04-09T07:48:18.189Z,101732.06
2023-04-09T07:50:48.264Z,101733.13
2023-04-09T07:53:14.907Z,101729.69
2023-04-09T07:55:41.532Z,101739.44
2023-04-09T07:58:08.064Z,101736.84
2023-04-09T08:00:34.559Z,101740.44
2023-04-09T08:03:01.840Z,101738.88
2023-04-09T08:05:28.853Z,101739.75
2023-04-09T08:07:55.439Z,101739.81
2023-04-09T08:10:21.955Z,101742.59
2023-04-09T08:12:48.990Z,101743.47
2023-04-09T08:15:15.499Z,101752.38
2023-04-09T08:17:42.132Z,101749.88
2023-04-09T08:20:09.085Z,101740.44
2023-04-09T08:22:35.657Z,101740.72
2023-04-09T08:25:02.932Z,101745.31
2023-04-09T08:27:29.597Z,101740.31
2023-04-09T08:29:56.202Z,101744.78
2023-04-09T08:32:23.800Z,101745.78
2023-04-09T08:34:50.360Z,101740.72
2023-04-09T08:37:17.540Z,101728.56
2023-04-09T08:39:44.191Z,101733.97
2023-04-09T08:42:12.599Z,101735.84
2023-04-09T08:44:39.197Z,101731.75
2023-04-09T08:47:11.382Z,101739.88
2023-04-09T08:49:41.594Z,101736.72
2023-04-09T08:52:09.818Z,101738.84
2023-04-09T08:54:37.177Z,101740.00
2023-04-09T08:57:05.846Z,101745.44
2023-04-09T08:59:36.801Z,101745.56
2023-04-09T09:02:07.832Z,101737.66
2023-04-09T09:04:46.347Z,101740.34
2023-04-09T09:07:13.409Z,101746.72
2023-04-09T09:10:00.237Z,101745.84
2023-04-09T09:12:40.470Z,101740.56
2023-04-09T09:15:28.178Z,101737.88
2023-04-09T09:17:59.605Z,101742.25
2023-04-09T09:20:27.145Z,101743.28
2023-04-09T09:22:55.902Z,101738.19
2023-04-09T09:25:26.700Z,101738.41
2023-04-09T09:27:54.564Z,101730.63
2023-04-09T09:30:26.603Z,101738.69
2023-04-09T09:33:05.623Z,101728.38
2023-04-09T09:35:48.316Z,101737.75
2023-04-09T09:38:16.244Z,101733.94
2023-04-09T09:40:43.692Z,101740.59
2023-04-09T09:43:10.979Z,101731.97
2023-04-09T09:45:38.890Z,101734.94
2023-04-09T09:48:08.327Z,101734.69
2023-04-09T09:50:36.727Z,101731.59
2023-04-09T09:53:07.633Z,101731.16
2023-04-09T09:55:38.982Z,101732.69
2023-04-09T09:58:17.295Z,101740.13
2023-04-09T10:00:46.523Z,101737.81
2023-04-09T10:03:25.231Z,101727.59
2023-04-09T10:05:53.531Z,101723.72
2023-04-09T10:08:21.730Z,101731.50
2023-04-09T10:10:49.025Z,101728.69
2023-04-09T10:13:27.126Z,101730.47
2023-04-09T10:15:53.990Z,101737.91
2023-04-09T10:18:21.329Z,101729.09
2023-04-09T10:21:00.283Z,101725.56
2023-04-09T10:23:41.560Z,101722.94
2023-04-09T10:26:08.580Z,101720.78
2023-04-09T10:28:37.509Z,101718.56
2023-04-09T10:31:08.616Z,101717.09
2023-04-09T10:33:37.344Z,101721.41
2023-04-09T10:36:06.383Z,101710.72
2023-04-09T10:38:38.364Z,101700.31
2023-04-09T10:41:27.602Z,101699.28
2023-04-09T10:43:57.056Z,101695.59
2023-04-09T10:46:36.892Z,101691.72
2023-04-09T10:49:10.452Z,101693.34
2023-04-09T10:51:40.601Z,101693.44
2023-04-09T10:54:32.753Z,101698.03
2023-04-09T10:57:08.184Z,101689.38
2023-04-09T10:59:41.196Z,101693.34
2023-04-09T11:02:10.381Z,101685.81
2023-04-09T11:04:46.562Z,101688.72
2023-04-09T11:07:17.798Z,101674.88
2023-04-09T11:09:44.362Z,101677.88
2023-04-09T11:12:14.017Z,101665.75
2023-04-09T11:14:40.568Z,101669.66
2023-04-09T11:17:07.169Z,101664.66
2023-04-09T11:19:34.330Z,101662.16
2023-04-09T11:22:01.016Z,101670.38
2023-04-09T11:24:39.638Z,101666.19
2023-04-09T11:27:06.109Z,101665.63
2023-04-09T11:29:35.065Z,101665.78
2023-04-09T11:32:02.488Z,101662.53
2023-04-09T11:34:29.081Z,101653.91
2023-04-09T11:36:56.887Z,101660.31
2023-04-09T11:39:23.460Z,101655.13
2023-04-09T11:41:50.101Z,101655.22
2023-04-09T11:44:16.625Z,101653.53
2023-04-09T11:46:43.634Z,101649.09
2023-04-09T11:49:10.311Z,101647.34
2023-04-09T11:51:36.901Z,101654.22
2023-04-09T11:54:04.873Z,101657.56
2023-04-09T11:56:32.470Z,101650.03
2023-04-09T11:58:59.500Z,101653.41
2023-04-09T12:01:32.422Z,101654.97
2023-04-09T12:04:00.235Z,101648.00
2023-04-09T12:06:30.040Z,101642.09
2023-04-09T12:08:58.064Z,101650.22
2023-04-09T12:11:29.966Z,101646.75
2023-04-09T12:14:01.246Z,101645.81
2023-04-09T12:16:32.089Z,101641.41
2023-04-09T12:19:09.145Z,101634.31
2023-04-09T12:22:05.261Z,101634.28
2023-04-09T12:24:32.011Z,101634.22
2023-04-09T12:26:58.706Z,101632.38
2023-04-09T12:29:26.704Z,101625.22
2023-04-09T12:31:54.036Z,101634.13
2023-04-09T12:34:20.720Z,101629.78
2023-04-09T12:36:47.297Z,101630.78
2023-04-09T12:39:14.724Z,101634.59
2023-04-09T12:41:43.218Z,101622.22
2023-04-09T12:44:09.961Z,101625.72
2023-04-09T12:46:37.531Z,101620.19
2023-04-09T12:49:04.272Z,101622.78
2023-04-09T12:51:30.832Z,101620.22
2023-04-09T12:53:57.370Z,101620.16
2023-04-09T12:56:24.791Z,101615.91
2023-04-09T12:58:52.059Z,101611.69
2023-04-09T13:01:18.898Z,101611.78
2023-04-09T13:03:45.708Z,101603.03
2023-04-09T13:06:12.311Z,101610.97
2023-04-09T13:08:38.840Z,101605.66
2023-04-09T13:11:05.889Z,101611.06
2023-04-09T13:13:32.399Z,101605.81
2023-04-09T13:15:59.019Z,101607.53
2023-04-09T13:18:25.630Z,101601.28
2023-04-09T13:20:52.133Z,101589.81
2023-04-09T13:23:18.605Z,101597.94
2023-04-09T13:25:45.437Z,101587.19
2023-04-09T13:28:14.249Z,101592.38
2023-04-09T13:30:40.773Z,101596.63
2023-04-09T13:33:07.325Z,101591.19
2023-04-09T13:35:34.774Z,101584.13
2023-04-09T13:38:01.328Z,101578.78
2023-04-09T13:40:27.912Z,101582.44
2023-04-09T13:42:54.392Z,101579.81
2023-04-09T13:45:23.700Z,101579.78
2023-04-09T13:47:50.215Z,101573.56
2023-04-09T13:50:17.092Z,101561.16
2023-04-09T13:52:43.509Z,101567.41
2023-04-09T13:55:10.408Z,101557.72
2023-04-09T13:57:37.270Z,101566.84
2023-04-09T14:00:04.634Z,101558.94
2023-04-09T14:02:32.097Z,101564.41
2023-04-09T14:04:59.111Z,101562.69
2023-04-09T14:07:26.308Z,101564.63
2023-04-09T14:09:52.812Z,101563.72
2023-04-09T14:12:19.282Z,101549.53
2023-04-09T14:14:45.778Z,101554.88
2023-04-09T14:17:12.464Z,101553.94
2023-04-09T14:19:39.734Z,101549.47
2023-04-09T14:22:07.723Z,101553.03
2023-04-09T14:24:40.296Z,101544.13
2023-04-09T14:27:10.340Z,101537.88
2023-04-09T14:29:36.839Z,101543.25
2023-04-09T14:32:03.633Z,101536.19
2023-04-09T14:34:31.416Z,101541.56
2023-04-09T14:36:58.032Z,101539.81
2023-04-09T14:39:24.633Z,101536.22
2023-04-09T14:41:51.780Z,101531.63
2023-04-09T14:44:18.274Z,101528.97
2023-04-09T14:46:45.502Z,101526.34
2023-04-09T14:49:13.563Z,101525.44
2023-04-09T14:51:40.129Z,101525.47
2023-04-09T14:54:06.740Z,101526.34
2023-04-09T14:56:35.390Z,101517.44
2023-04-09T14:59:01.881Z,101516.59
2023-04-09T15:01:28.469Z,101518.34
2023-04-09T15:03:55.648Z,101517.38
2023-04-09T15:06:22.552Z,101520.06
2023-04-09T15:08:49.008Z,101518.28
2023-04-09T15:11:16.615Z,101520.91
2023-04-09T15:13:43.589Z,101519.09
2023-04-09T15:16:10.507Z,101512.00
2023-04-09T15:18:40.143Z,101518.22
2023-04-09T15:21:07.314Z,101513.75
2023-04-09T15:23:35.457Z,101511.09
2023-04-09T15:26:02.208Z,101508.41
2023-04-09T15:28:30.303Z,101504.00
2023-04-09T15:30:57.954Z,101509.31
2023-04-09T15:33:24.537Z,101504.91
2023-04-09T15:35:51.166Z,101502.28
2023-04-09T15:38:17.801Z,101503.19
2023-04-09T15:40:46.138Z,101505.00
2023-04-09T15:43:13.974Z,101497.00
2023-04-09T15:45:41.427Z,101503.28
2023-04-09T15:48:09.470Z,101500.63
2023-04-09T15:50:36.198Z,101495.34
2023-04-09T15:53:02.946Z,101494.47
2023-04-09T15:55:29.547Z,101502.56
2023-04-09T15:57:56.036Z,101486.63
2023-04-09T16:00:26.233Z,101489.41
2023-04-09T16:02:53.686Z,101491.13
2023-04-09T16:05:20.482Z,101496.97
2023-04-09T16:07:51.021Z,101494.56
2023-04-09T16:10:18.840Z,101482.28
2023-04-09T16:12:45.488Z,101480.81
2023-04-09T16:15:12.071Z,101481.84
2023-04-09T16:17:40.873Z,101482.03
2023-04-09T16:20:08.513Z,101488.34
2023-04-09T16:22:35.460Z,101490.22
2023-04-09T16:25:02.033Z,101487.47
2023-04-09T16:27:28.997Z,101488.97
2023-04-09T16:29:56.076Z,101488.63
2023-04-09T16:32:22.886Z,101490.91
2023-04-09T16:34:49.431Z,101494.13
2023-04-09T16:37:16.093Z,101496.97
2023-04-09T16:39:42.636Z,101495.47
2023-04-09T16:42:11.011Z,101488.47
2023-04-09T16:44:38.055Z,101483.50
2023-04-09T16:47:05.637Z,101481.56
2023-04-09T16:49:32.185Z,101481.56
2023-04-09T16:51:58.787Z,101483.50
2023-04-09T16:54:25.885Z,101481.97
2023-04-09T16:56:53.063Z,101476.28
2023-04-09T16:59:21.031Z,101470.16
2023-04-09T17:01:51.361Z,101477.28
2023-04-09T17:04:18.028Z,101475.63
2023-04-09T17:06:44.798Z,101472.56
2023-04-09T17:09:11.655Z,101471.03
2023-04-09T17:11:38.305Z,101464.88
2023-04-09T17:14:05.751Z,101463.91
2023-04-09T17:16:33.178Z,101466.34
2023-04-09T17:18:59.807Z,101472.25
2023-04-09T17:21:26.534Z,101467.25
2023-04-09T17:23:53.077Z,101472.03
2023-04-09T17:26:20.716Z,101468.66
2023-04-09T17:28:47.630Z,101466.13
2023-04-09T17:31:15.951Z,101466.22
2023-04-09T17:33:47.002Z,101467.09
2023-04-09T17:36:14.148Z,101467.09
2023-04-09T17:38:40.617Z,101465.31
2023-04-09T17:41:07.901Z,101469.72
2023-04-09T17:43:34.557Z,101464.28
2023-04-09T17:46:01.567Z,101475.78
2023-04-09T17:48:30.063Z,101481.00
2023-04-09T17:50:58.057Z,101479.06
2023-04-09T17:53:25.038Z,101486.94
2023-04-09T17:55:52.054Z,101479.66
2023-04-09T17:58:19.141Z,101478.63
2023-04-09T18:00:45.680Z,101477.53
2023-04-09T18:03:12.853Z,101480.03
2023-04-09T18:05:39.809Z,101482.56
2023-04-09T18:08:07.336Z,101496.56
2023-04-09T18:10:34.307Z,101493.69
2023-04-09T18:13:00.797Z,101502.28
2023-04-09T18:15:28.232Z,101488.72
2023-04-09T18:17:54.927Z,101492.13
2023-04-09T18:20:21.458Z,101486.59
2023-04-09T18:22:48.124Z,101485.53
2023-04-09T18:25:14.639Z,101488.91
2023-04-09T18:27:41.156Z,101486.88
2023-04-09T18:30:08.186Z,101498.16
2023-04-09T18:32:34.842Z,101498.81
2023-04-09T18:35:01.639Z,101502.06
2023-04-09T18:37:28.313Z,101501.84
2023-04-09T18:39:55.111Z,101507.81
2023-04-09T18:42:21.798Z,101498.75
2023-04-09T18:44:48.723Z,101504.72
2023-04-09T18:47:15.323Z,101502.66
2023-04-09T18:49:42.363Z,101491.75
2023-04-09T18:52:10.342Z,101504.78
2023-04-09T18:54:37.318Z,101510.78
2023-04-09T18:57:04.403Z,101510.59
2023-04-09T18:59:33.403Z,101499.75
2023-04-09T19:02:00.563Z,101503.03
2023-04-09T19:04:28.152Z,101513.38
2023-04-09T19:06:54.774Z,101512.28
2023-04-09T19:09:21.626Z,101513.88
2023-04-09T19:11:48.663Z,101519.84
2023-04-09T19:14:15.931Z,101515.28
2023-04-09T19:16:44.428Z,101515.97
2023-04-09T19:19:11.855Z,101513.09
2023-04-09T19:21:38.396Z,101502.28
2023-04-09T19:24:06.220Z,101497.69
2023-04-09T19:26:33.232Z,101502.78
2023-04-09T19:28:59.970Z,101493.78
2023-04-09T19:31:26.576Z,101498.00
2023-04-09T19:33:53.245Z,101498.69
2023-04-09T19:36:19.785Z,101492.38
2023-04-09T19:38:46.501Z,101493.06
2023-04-09T19:41:13.052Z,101493.75
2023-04-09T19:43:41.866Z,101486.50
2023-04-09T19:46:08.774Z,101485.44
2023-04-09T19:48:36.813Z,101478.25
2023-04-09T19:51:03.702Z,101479.88
2023-04-09T19:53:31.035Z,101477.06
2023-04-09T19:55:57.694Z,101483.94
2023-04-09T19:58:24.371Z,101484.75
2023-04-09T20:00:51.434Z,101479.22
2023-04-09T20:03:18.729Z,101469.34
2023-04-09T20:05:45.328Z,101471.66
2023-04-09T20:08:15.144Z,101473.13
2023-04-09T20:10:45.037Z,101479.91
2023-04-09T20:13:11.944Z,101479.59
2023-04-09T20:15:38.788Z,101489.03
2023-04-09T20:18:06.267Z,101493.19
2023-04-09T20:20:32.956Z,101485.94
2023-04-09T20:22:59.787Z,101487.50
2023-04-09T20:25:33.790Z,101491.72
2023-04-09T20:28:01.857Z,101489.78
2023-04-09T20:30:28.399Z,101488.78
2023-04-09T20:32:54.983Z,101485.97
2023-04-09T20:35:21.616Z,101494.63
2023-04-09T20:37:50.143Z,101492.69
2023-04-09T20:40:17.365Z,101491.69
2023-04-09T20:42:44.989Z,101488.91
2023-04-09T20:45:11.622Z,101482.63
2023-04-09T20:47:38.280Z,101487.78
2023-04-09T20:50:05.365Z,101486.75
2023-04-09T20:52:32.738Z,101485.78
2023-04-09T20:54:59.252Z,101488.34
2023-04-09T20:57:25.972Z,101489.06
2023-04-09T20:59:56.014Z,101487.16
2023-04-09T21:02:23.900Z,101484.38
2023-04-09T21:04:50.514Z,101491.28
2023-04-09T21:07:17.948Z,101474.41
2023-04-09T21:09:44.532Z,101482.16
2023-04-09T21:12:12.332Z,101489.06
2023-04-09T21:14:39.267Z,101484.50
2023-04-09T21:17:05.996Z,101488.78
2023-04-09T21:19:33.125Z,101485.94
2023-04-09T21:22:00.149Z,101479.66
2023-04-09T21:24:27.907Z,101476.78
2023-04-09T21:26:54.488Z,101489.75
2023-04-09T21:29:21.412Z,101479.97
2023-04-09T21:31:48.871Z,101486.84
2023-04-09T21:34:16.920Z,101486.72
2023-04-09T21:36:45.263Z,101476.03
2023-04-09T21:39:12.527Z,101475.84
2023-04-09T21:41:40.131Z,101469.56
2023-04-09T21:44:09.638Z,101479.22
2023-04-09T21:46:37.342Z,101476.41
2023-04-09T21:49:05.489Z,101477.13
2023-04-09T21:51:32.787Z,101473.47
2023-04-09T21:54:06.988Z,101481.22
2023-04-09T21:56:34.478Z,101481.03
2023-04-09T21:59:02.622Z,101486.19
2023-04-09T22:01:34.543Z,101482.47
2023-04-09T22:04:02.119Z,101488.47
2023-04-09T22:06:29.292Z,101483.97
2023-04-09T22:08:57.749Z,101483.84
2023-04-09T22:11:29.868Z,101478.47
2023-04-09T22:13:58.532Z,101491.56
2023-04-09T22:16:25.982Z,101489.78
2023-04-09T22:18:58.015Z,101493.25
2023-04-09T22:21:24.943Z,101479.94
2023-04-09T22:23:51.407Z,101486.88
2023-04-09T22:26:17.942Z,101483.28
2023-04-09T22:28:44.516Z,101485.94
2023-04-09T22:31:11.332Z,101481.47
2023-04-09T22:33:38.073Z,101483.19
2023-04-09T22:36:07.866Z,101486.63
2023-04-09T22:38:34.858Z,101489.16
2023-04-09T22:41:01.587Z,101492.63
2023-04-09T22:43:28.095Z,101493.41
2023-04-09T22:45:58.436Z,101495.97
2023-04-09T22:48:24.952Z,101500.34
2023-04-09T22:50:51.446Z,101495.88
2023-04-09T22:53:19.253Z,101488.78
2023-04-09T22:55:50.655Z,101490.44
2023-04-09T22:58:17.621Z,101487.00
2023-04-09T23:00:45.026Z,101486.16
2023-04-09T23:03:12.012Z,101485.19
2023-04-09T23:05:39.377Z,101487.75
2023-04-09T23:08:06.996Z,101486.88
2023-04-09T23:10:33.626Z,101488.56
2023-04-09T23:13:02.908Z,101488.41
2023-04-09T23:15:29.499Z,101486.63
2023-04-09T23:17:56.237Z,101486.56
2023-04-09T23:20:23.191Z,101488.31
2023-04-09T23:22:52.306Z,101486.44
2023-04-09T23:25:22.628Z,101485.50
2023-04-09T23:27:49.176Z,101479.28
2023-04-09T23:30:18.627Z,101484.47
2023-04-09T23:32:45.723Z,101475.63
2023-04-09T23:35:13.212Z,101478.16
2023-04-09T23:37:41.252Z,101475.41
2023-04-09T23:40:08.619Z,101467.47
2023-04-09T23:42:35.602Z,101469.97
2023-04-09T23:45:04.472Z,101464.72
2023-04-09T23:47:35.635Z,101464.56
2023-04-09T23:50:07.185Z,101459.19
2023-04-09T23:52:36.401Z,101464.41
2023-04-09T23:55:08.889Z,101456.34
2023-04-09T23:57:40.028Z,101456.25
